createdAt,value
2023-03-24T00:00:59.332Z,24.25
2023-03-24T00:03:26.143Z,21.77
2023-03-24T00:06:02.430Z,29.52
2023-03-24T00:08:36.543Z,14.57
2023-03-24T00:11:04.555Z,22.13
2023-03-24T00:13:32.133Z,15.85
2023-03-24T00:16:01.355Z,21.08
2023-03-24T00:18:27.784Z,16.33
2023-03-24T00:20:58.817Z,21.67
2023-03-24T00:23:26.504Z,19.88
2023-03-24T00:26:19.251Z,25.27
2023-03-24T00:28:46.954Z,28.38
2023-03-24T00:31:16.813Z,25.48
2023-03-24T00:33:44.204Z,27.23
2023-03-24T00:36:14.374Z,21.48
2023-03-24T00:38:41.246Z,29.65
2023-03-24T00:41:08.430Z,25.02
2023-03-24T00:43:34.983Z,30.75
2023-03-24T00:46:11.045Z,29.83
2023-03-24T00:48:38.289Z,40.47
2023-03-24T00:51:08.082Z,35.13
2023-03-24T00:53:35.008Z,30.95
2023-03-24T00:56:01.472Z,27.38
2023-03-24T00:58:29.883Z,33.67
2023-03-24T01:00:57.274Z,47.33
2023-03-24T01:03:27.680Z,34.20
2023-03-24T01:05:57.579Z,31.30
2023-03-24T01:08:25.650Z,38.92
2023-03-24T01:10:55.664Z,42.20
2023-03-24T01:13:23.408Z,26.20
2023-03-24T01:15:50.260Z,23.25
2023-03-24T01:18:17.143Z,37.58
2023-03-24T01:20:49.857Z,33.90
2023-03-24T01:23:21.438Z,35.85
2023-03-24T01:25:48.996Z,25.35
2023-03-24T01:28:17.208Z,29.00
2023-03-24T01:30:44.315Z,35.88
2023-03-24T01:33:11.163Z,42.78
2023-03-24T01:35:37.786Z,31.08
2023-03-24T01:38:13.723Z,37.20
2023-03-24T01:40:41.896Z,31.33
2023-03-24T01:43:16.089Z,34.63
2023-03-24T01:45:44.474Z,38.22
2023-03-24T01:48:18.740Z,30.15
2023-03-24T01:50:48.746Z,49.72
2023-03-24T01:53:15.603Z,46.63
2023-03-24T01:55:43.180Z,50.35
2023-03-24T01:58:09.861Z,48.47
2023-03-24T02:00:38.039Z,41.00
2023-03-24T02:03:08.252Z,35.92
2023-03-24T02:05:36.567Z,43.22
2023-03-24T02:08:22.459Z,60.22
2023-03-24T02:10:49.367Z,38.80
2023-03-24T02:13:15.925Z,45.58
2023-03-24T02:15:50.821Z,38.03
2023-03-24T02:18:33.179Z,40.38
2023-03-24T02:21:02.591Z,42.85
2023-03-24T02:23:47.791Z,42.67
2023-03-24T02:26:14.197Z,38.53
2023-03-24T02:28:52.869Z,49.17
2023-03-24T02:31:34.214Z,38.10
2023-03-24T02:34:19.345Z,45.45
2023-03-24T02:37:04.410Z,38.72
2023-03-24T02:39:30.803Z,31.02
2023-03-24T02:42:10.842Z,48.47
2023-03-24T02:44:47.023Z,39.37
2023-03-24T02:47:31.126Z,30.75
2023-03-24T02:50:13.944Z,47.92
2023-03-24T02:52:49.537Z,44.50
2023-03-24T02:55:25.458Z,37.28
2023-03-24T02:57:58.019Z,38.38
2023-03-24T03:00:30.937Z,39.92
2023-03-24T03:02:59.415Z,42.60
2023-03-24T03:05:26.038Z,34.95
2023-03-24T03:07:54.532Z,44.15
2023-03-24T03:10:25.251Z,54.38
2023-03-24T03:12:54.006Z,35.30
2023-03-24T03:15:22.746Z,38.60
2023-03-24T03:17:54.912Z,50.83
2023-03-24T03:20:22.732Z,48.45
2023-03-24T03:22:51.700Z,44.78
2023-03-24T03:25:23.158Z,46.10
2023-03-24T03:27:54.222Z,41.50
2023-03-24T03:30:26.774Z,44.70
2023-03-24T03:32:56.640Z,36.40
2023-03-24T03:35:29.253Z,47.78
2023-03-24T03:38:07.740Z,42.15
2023-03-24T03:40:43.387Z,42.28
2023-03-24T03:43:09.830Z,44.95
2023-03-24T03:45:36.325Z,44.45
2023-03-24T03:48:02.903Z,52.40
2023-03-24T03:50:29.442Z,37.65
2023-03-24T03:52:55.889Z,34.92
2023-03-24T03:55:22.447Z,37.97
2023-03-24T03:57:49.130Z,36.05
2023-03-24T04:00:17.034Z,35.13
2023-03-24T04:02:52.757Z,32.70
2023-03-24T04:05:38.074Z,31.35
2023-03-24T04:08:25.553Z,33.10
2023-03-24T04:10:55.114Z,29.50
2023-03-24T04:13:28.348Z,41.13
2023-03-24T04:15:57.873Z,41.00
2023-03-24T04:18:27.297Z,35.45
2023-03-24T04:21:02.982Z,38.15
2023-03-24T04:23:50.439Z,52.13
2023-03-24T04:26:26.709Z,32.10
2023-03-24T04:29:09.208Z,25.42
2023-03-24T04:31:55.886Z,49.15
2023-03-24T04:36:54.762Z,37.67
2023-03-24T04:39:28.974Z,41.22
2023-03-24T04:42:00.008Z,40.22
2023-03-24T04:44:26.552Z,31.92
2023-03-24T04:46:56.151Z,42.70
2023-03-24T04:49:27.307Z,38.67
2023-03-24T04:51:53.961Z,34.83
2023-03-24T04:54:21.179Z,37.50
2023-03-24T04:56:47.938Z,39.50
2023-03-24T04:59:15.350Z,40.00
2023-03-24T05:01:49.944Z,45.20
2023-03-24T05:04:17.713Z,41.92
2023-03-24T05:06:44.209Z,21.95
2023-03-24T05:09:10.581Z,42.35
2023-03-24T05:11:37.732Z,31.88
2023-03-24T05:14:04.166Z,29.67
2023-03-24T05:16:30.725Z,39.67
2023-03-24T05:18:57.159Z,33.45
2023-03-24T05:21:23.673Z,40.65
2023-03-24T05:23:50.062Z,33.90
2023-03-24T05:26:16.667Z,22.17
2023-03-24T05:28:43.035Z,31.10
2023-03-24T05:31:09.548Z,46.10
2023-03-24T05:33:36.096Z,23.63
2023-03-24T05:36:02.637Z,33.22
2023-03-24T05:38:29.274Z,39.25
2023-03-24T05:41:00.550Z,34.25
2023-03-24T05:43:27.381Z,33.22
2023-03-24T05:45:54.171Z,28.42
2023-03-24T05:48:20.698Z,31.45
2023-03-24T05:50:47.215Z,22.73
2023-03-24T05:53:13.842Z,29.23
2023-03-24T05:55:40.252Z,25.05
2023-03-24T05:58:06.651Z,28.55
2023-03-24T06:00:33.484Z,25.08
2023-03-24T06:03:00.566Z,25.45
2023-03-24T06:05:27.531Z,33.83
2023-03-24T06:07:58.495Z,37.75
2023-03-24T06:12:53.088Z,31.42
2023-03-24T06:15:22.577Z,31.17
2023-03-24T06:17:50.368Z,26.65
2023-03-24T06:20:18.621Z,34.80
2023-03-24T06:22:45.948Z,30.85
2023-03-24T06:25:13.774Z,35.42
2023-03-24T06:27:42.577Z,31.55
2023-03-24T06:30:09.715Z,25.35
2023-03-24T06:32:36.656Z,29.48
2023-03-24T06:35:03.125Z,26.17
2023-03-24T06:37:29.597Z,29.77
2023-03-24T06:39:56.197Z,27.85
2023-03-24T06:42:22.687Z,27.05
2023-03-24T06:44:49.299Z,31.58
2023-03-24T06:47:15.958Z,25.02
2023-03-24T06:49:45.558Z,17.58
2023-03-24T06:52:12.001Z,24.67
2023-03-24T06:54:39.294Z,25.30
2023-03-24T06:57:06.860Z,19.02
2023-03-24T06:59:33.400Z,22.63
2023-03-24T07:02:01.274Z,22.00
2023-03-24T07:04:27.816Z,19.65
2023-03-24T07:07:05.636Z,14.25
2023-03-24T07:09:40.735Z,14.65
2023-03-24T07:12:07.240Z,20.52
2023-03-24T07:14:33.660Z,16.95
2023-03-24T07:17:00.163Z,13.85
2023-03-24T07:19:26.655Z,14.77
2023-03-24T07:21:55.847Z,17.00
2023-03-24T07:24:22.430Z,10.70
2023-03-24T07:26:48.884Z,10.45
2023-03-24T07:29:15.388Z,14.50
2023-03-24T07:31:41.898Z,6.38
2023-03-24T07:34:09.185Z,8.80
2023-03-24T07:36:36.055Z,7.70
2023-03-24T07:39:06.183Z,10.82
2023-03-24T07:41:32.791Z,7.60
2023-03-24T07:43:59.273Z,12.75
2023-03-24T07:46:25.850Z,9.02
2023-03-24T07:48:53.060Z,6.35
2023-03-24T07:51:20.102Z,9.50
2023-03-24T07:53:47.761Z,8.73
2023-03-24T07:56:14.924Z,9.25
2023-03-24T07:58:41.537Z,7.78
2023-03-24T08:01:10.423Z,7.00
2023-03-24T08:03:37.377Z,12.52
2023-03-24T08:06:04.495Z,11.43
2023-03-24T08:08:31.682Z,8.65
2023-03-24T08:10:58.244Z,11.73
2023-03-24T08:13:24.856Z,18.70
2023-03-24T08:15:53.355Z,8.45
2023-03-24T08:18:24.263Z,15.23
2023-03-24T08:23:18.207Z,14.60
2023-03-24T08:25:44.646Z,35.92
2023-03-24T08:28:11.356Z,192.77
2023-03-24T08:30:38.000Z,36.65
2023-03-24T08:33:04.644Z,37.10
2023-03-24T08:35:34.739Z,15.50
2023-03-24T08:38:02.304Z,23.85
2023-03-24T08:40:31.851Z,28.58
2023-03-24T08:42:59.907Z,138.38
2023-03-24T08:45:28.395Z,20.67
2023-03-24T08:47:55.500Z,13.05
2023-03-24T08:50:23.913Z,5.50
2023-03-24T08:52:50.587Z,18.08
2023-03-24T08:55:18.204Z,44.67
2023-03-24T08:57:45.095Z,27.20
2023-03-24T09:00:15.443Z,19.10
2023-03-24T09:02:42.900Z,7.57
2023-03-24T09:05:09.433Z,16.30
2023-03-24T09:07:36.122Z,8.02
2023-03-24T09:10:02.848Z,9.80
2023-03-24T09:12:29.226Z,22.98
2023-03-24T09:14:55.857Z,35.65
2023-03-24T09:17:22.437Z,16.48
2023-03-24T09:19:49.082Z,12.60
2023-03-24T09:22:15.920Z,136.57
2023-03-24T09:24:42.583Z,12.63
2023-03-24T09:27:11.984Z,36.22
2023-03-24T09:29:38.603Z,18.92
2023-03-24T09:32:05.138Z,18.98
2023-03-24T09:34:33.770Z,6.35
2023-03-24T09:37:01.085Z,14.65
2023-03-24T09:39:28.170Z,24.08
2023-03-24T09:41:56.064Z,10.95
2023-03-24T09:44:22.461Z,10.65
2023-03-24T09:46:51.460Z,8.40
2023-03-24T09:49:27.587Z,14.10
2023-03-24T09:51:56.652Z,8.52
2023-03-24T09:54:32.984Z,9.02
2023-03-24T09:56:59.718Z,16.05
2023-03-24T09:59:29.033Z,64.30
2023-03-24T10:01:56.595Z,22.73
2023-03-24T10:04:27.169Z,5.75
2023-03-24T10:07:06.267Z,3.00
2023-03-24T10:09:34.664Z,7.63
2023-03-24T10:12:10.355Z,3.78
2023-03-24T10:14:44.934Z,4.53
2023-03-24T10:17:20.224Z,2.80
2023-03-24T10:19:53.040Z,6.90
2023-03-24T10:22:28.170Z,2.45
2023-03-24T10:24:59.435Z,1.70
2023-03-24T10:27:34.739Z,5.57
2023-03-24T10:30:05.051Z,5.57
2023-03-24T10:32:33.659Z,4.88
2023-03-24T10:35:07.604Z,2.25
2023-03-24T10:37:34.039Z,2.63
2023-03-24T10:40:00.702Z,5.60
2023-03-24T10:42:30.583Z,1.88
2023-03-24T10:44:57.630Z,1.67
2023-03-24T10:47:29.002Z,3.97
2023-03-24T10:50:12.651Z,3.65
2023-03-24T10:52:42.036Z,2.70
2023-03-24T10:55:14.967Z,1.75
2023-03-24T10:57:43.518Z,1.23
2023-03-24T11:00:19.119Z,13.25
2023-03-24T11:02:53.193Z,1.50
2023-03-24T11:05:22.518Z,2.20
2023-03-24T11:07:53.740Z,0.88
2023-03-24T11:10:27.446Z,0.98
2023-03-24T11:12:53.858Z,1.08
2023-03-24T11:15:23.365Z,0.80
2023-03-24T11:17:55.519Z,0.82
2023-03-24T11:20:27.740Z,1.98
2023-03-24T11:23:09.594Z,2.25
2023-03-24T11:25:38.968Z,1.05
2023-03-24T11:28:09.019Z,1.80
2023-03-24T11:30:45.607Z,4.82
2023-03-24T11:33:36.200Z,7.43
2023-03-24T11:36:06.530Z,4.13
2023-03-24T11:38:34.627Z,4.57
2023-03-24T11:41:04.317Z,6.43
2023-03-24T11:43:31.414Z,3.97
2023-03-24T11:46:07.208Z,3.80
2023-03-24T11:48:45.655Z,2.83
2023-03-24T11:51:24.007Z,5.22
2023-03-24T11:53:51.988Z,3.30
2023-03-24T11:56:47.627Z,2.17
2023-03-24T11:59:34.145Z,7.88
2023-03-24T12:02:00.558Z,3.83
2023-03-24T12:04:29.863Z,6.18
2023-03-24T12:06:56.739Z,5.28
2023-03-24T12:09:42.666Z,3.15
2023-03-24T12:12:29.319Z,6.00
2023-03-24T12:15:09.700Z,7.43
2023-03-24T12:17:41.962Z,8.18
2023-03-24T12:20:19.105Z,6.90
2023-03-24T12:22:45.497Z,5.28
2023-03-24T12:25:12.147Z,9.20
2023-03-24T12:27:47.616Z,6.32
2023-03-24T12:30:17.349Z,5.03
2023-03-24T12:32:47.165Z,3.92
2023-03-24T12:35:26.077Z,5.05
2023-03-24T12:37:59.728Z,3.67
2023-03-24T12:40:45.005Z,5.30
2023-03-24T12:43:30.701Z,6.07
2023-03-24T12:45:58.535Z,7.38
2023-03-24T12:48:43.586Z,3.72
2023-03-24T12:51:13.092Z,6.25
2023-03-24T12:53:49.034Z,6.55
2023-03-24T12:56:18.524Z,2.88
2023-03-24T12:59:02.507Z,8.95
2023-03-24T13:01:34.334Z,5.30
2023-03-24T13:04:05.592Z,10.70
2023-03-24T13:06:38.940Z,7.25
2023-03-24T13:09:05.800Z,6.32
2023-03-24T13:11:36.263Z,10.27
2023-03-24T13:14:04.770Z,3.45
2023-03-24T13:16:35.510Z,8.45
2023-03-24T13:19:04.298Z,6.45
2023-03-24T13:21:35.104Z,6.80
2023-03-24T13:26:43.407Z,4.00
2023-03-24T13:29:18.896Z,6.07
2023-03-24T13:32:08.856Z,2.85
2023-03-24T13:34:40.980Z,3.25
2023-03-24T13:37:13.021Z,1.25
2023-03-24T13:39:39.572Z,2.05
2023-03-24T13:42:06.274Z,2.42
2023-03-24T13:44:35.916Z,0.57
2023-03-24T13:47:02.866Z,0.90
2023-03-24T13:49:30.616Z,0.88
2023-03-24T13:52:03.045Z,0.82
2023-03-24T13:54:29.634Z,7.20
2023-03-24T13:56:59.250Z,1.48
2023-03-24T13:59:28.749Z,2.10
2023-03-24T14:02:17.932Z,0.90
2023-03-24T14:05:03.430Z,0.40
2023-03-24T14:07:39.064Z,2.63
2023-03-24T14:10:14.353Z,1.05
2023-03-24T14:12:58.786Z,3.47
2023-03-24T14:15:44.246Z,2.78
2023-03-24T14:18:33.479Z,1.45
2023-03-24T14:21:01.854Z,2.78
2023-03-24T14:23:40.530Z,0.80
2023-03-24T14:26:08.354Z,0.47
2023-03-24T14:28:40.691Z,0.80
2023-03-24T14:31:16.107Z,0.77
2023-03-24T14:34:02.987Z,0.95
2023-03-24T14:36:31.189Z,1.55
2023-03-24T14:39:06.131Z,4.82
2023-03-24T14:41:39.119Z,1.67
2023-03-24T14:44:06.013Z,2.08
2023-03-24T14:46:32.473Z,1.77
2023-03-24T14:49:03.613Z,2.90
2023-03-24T14:51:36.812Z,1.55
2023-03-24T14:54:05.400Z,2.15
2023-03-24T14:56:37.186Z,4.20
2023-03-24T14:59:07.276Z,1.73
2023-03-24T15:01:34.312Z,2.38
2023-03-24T15:04:02.228Z,5.32
2023-03-24T15:06:29.268Z,4.78
2023-03-24T15:08:58.550Z,11.95
2023-03-24T15:11:27.004Z,9.68
2023-03-24T15:13:54.272Z,6.95
2023-03-24T15:16:22.615Z,8.88
2023-03-24T15:21:47.235Z,12.65
2023-03-24T15:24:22.712Z,12.23
2023-03-24T15:26:51.369Z,9.05
2023-03-24T15:29:20.630Z,19.55
2023-03-24T15:31:47.421Z,10.05
2023-03-24T15:34:27.260Z,10.77
2023-03-24T15:36:55.145Z,10.55
2023-03-24T15:39:25.169Z,11.57
2023-03-24T15:41:54.561Z,14.23
2023-03-24T15:44:28.432Z,13.30
2023-03-24T15:46:56.852Z,12.25
2023-03-24T15:49:27.281Z,12.15
2023-03-24T15:52:16.668Z,19.00
2023-03-24T15:54:44.577Z,13.70
2023-03-24T15:57:24.348Z,12.38
2023-03-24T16:00:09.560Z,19.27
2023-03-24T16:02:41.786Z,19.75
2023-03-24T16:05:19.644Z,11.60
2023-03-24T16:07:57.969Z,16.88
2023-03-24T16:10:40.271Z,20.35
2023-03-24T16:13:13.582Z,19.70
2023-03-24T16:15:58.575Z,17.55
2023-03-24T16:18:36.232Z,19.83
2023-03-24T16:21:09.312Z,23.48
2023-03-24T16:23:35.806Z,14.57
2023-03-24T16:26:02.277Z,28.95
2023-03-24T16:28:28.676Z,29.20
2023-03-24T16:30:58.337Z,21.25
2023-03-24T16:33:24.806Z,17.73
2023-03-24T16:35:51.317Z,18.08
2023-03-24T16:38:18.165Z,25.90
2023-03-24T16:40:53.010Z,22.02
2023-03-24T16:43:19.853Z,13.98
2023-03-24T16:45:47.071Z,22.10
2023-03-24T16:48:13.683Z,22.55
2023-03-24T16:50:42.256Z,17.95
2023-03-24T16:53:08.927Z,19.05
2023-03-24T16:55:36.473Z,19.60
2023-03-24T16:58:06.032Z,21.38
2023-03-24T17:00:33.283Z,24.63
2023-03-24T17:03:00.048Z,36.13
2023-03-24T17:05:28.404Z,35.00
2023-03-24T17:07:55.537Z,34.65
2023-03-24T17:10:22.616Z,32.20
2023-03-24T17:12:50.258Z,29.30
2023-03-24T17:15:24.101Z,28.10
2023-03-24T17:17:50.681Z,25.67
2023-03-24T17:20:17.553Z,31.67
2023-03-24T17:22:44.844Z,33.15
2023-03-24T17:25:14.439Z,31.50
2023-03-24T17:27:41.070Z,30.83
2023-03-24T17:30:11.097Z,19.88
2023-03-24T17:32:37.831Z,20.90
2023-03-24T17:35:04.404Z,24.85
2023-03-24T17:37:31.383Z,27.52
2023-03-24T17:39:57.866Z,21.08
2023-03-24T17:42:26.365Z,30.88
2023-03-24T17:44:52.776Z,35.47
2023-03-24T17:47:19.203Z,21.60
2023-03-24T17:49:45.579Z,30.83
2023-03-24T17:52:11.999Z,23.58
2023-03-24T17:54:38.867Z,28.27
2023-03-24T17:57:05.394Z,34.78
2023-03-24T17:59:32.758Z,23.38
2023-03-24T18:01:59.203Z,28.75
2023-03-24T18:04:25.612Z,25.63
2023-03-24T18:06:52.165Z,38.47
2023-03-24T18:09:18.570Z,26.50
2023-03-24T18:11:47.330Z,29.98
2023-03-24T18:14:14.248Z,43.35
2023-03-24T18:16:40.648Z,30.38
2023-03-24T18:19:10.326Z,21.00
2023-03-24T18:21:37.695Z,22.65
2023-03-24T18:24:04.577Z,32.13
2023-03-24T18:26:31.003Z,25.13
2023-03-24T18:28:57.473Z,25.15
2023-03-24T18:31:26.312Z,30.63
2023-03-24T18:33:53.382Z,37.08
2023-03-24T18:36:26.612Z,37.90
2023-03-24T18:38:58.393Z,29.67
2023-03-24T18:41:27.008Z,30.73
2023-03-24T18:43:54.830Z,26.90
2023-03-24T18:46:21.922Z,26.02
2023-03-24T18:48:48.759Z,40.22
2023-03-24T18:51:15.698Z,35.15
2023-03-24T18:53:42.198Z,40.88
2023-03-24T18:56:08.737Z,37.20
2023-03-24T18:58:37.954Z,33.72
2023-03-24T19:01:06.821Z,30.02
2023-03-24T19:03:35.422Z,37.72
2023-03-24T19:06:02.809Z,29.88
2023-03-24T19:08:29.238Z,36.30
2023-03-24T19:10:56.020Z,38.05
2023-03-24T19:13:22.458Z,23.55
2023-03-24T19:15:49.067Z,26.85
2023-03-24T19:18:15.746Z,34.47
2023-03-24T19:20:42.452Z,33.97
2023-03-24T19:23:09.314Z,36.88
2023-03-24T19:25:35.726Z,37.17
2023-03-24T19:28:02.193Z,52.03
2023-03-24T19:30:29.485Z,32.50
2023-03-24T19:32:56.736Z,37.88
2023-03-24T19:35:23.651Z,40.53
2023-03-24T19:37:50.188Z,30.08
2023-03-24T19:40:16.626Z,36.92
2023-03-24T19:42:44.944Z,42.47
2023-03-24T19:45:12.447Z,42.15
2023-03-24T19:47:39.139Z,37.13
2023-03-24T19:50:07.501Z,36.40
2023-03-24T19:52:34.112Z,34.55
2023-03-24T19:55:00.571Z,38.72
2023-03-24T19:57:30.251Z,41.05
2023-03-24T19:59:57.157Z,26.52
2023-03-24T20:02:24.666Z,33.30
2023-03-24T20:04:52.005Z,29.27
2023-03-24T20:07:18.428Z,35.53
2023-03-24T20:09:44.884Z,32.55
2023-03-24T20:12:11.443Z,37.65
2023-03-24T20:14:37.905Z,36.55
2023-03-24T20:17:04.347Z,51.33
2023-03-24T20:19:31.187Z,32.08
2023-03-24T20:21:57.590Z,38.53
2023-03-24T20:24:24.134Z,32.65
2023-03-24T20:26:51.276Z,30.17
2023-03-24T20:29:17.838Z,45.63
2023-03-24T20:31:44.815Z,33.83
2023-03-24T20:34:13.393Z,40.55
2023-03-24T20:36:41.239Z,27.70
2023-03-24T20:39:07.749Z,29.55
2023-03-24T20:41:34.377Z,40.90
2023-03-24T20:44:01.070Z,40.60
2023-03-24T20:46:27.590Z,43.90
2023-03-24T20:48:54.285Z,39.97
2023-03-24T20:51:20.675Z,48.83
2023-03-24T20:53:49.772Z,45.03
2023-03-24T20:56:16.787Z,47.72
2023-03-24T20:58:44.528Z,47.85
2023-03-24T21:01:20.560Z,32.30
2023-03-24T21:03:47.998Z,49.90
2023-03-24T21:06:15.352Z,40.60
2023-03-24T21:08:44.609Z,43.72
2023-03-24T21:11:13.812Z,41.65
2023-03-24T21:13:40.833Z,41.22
2023-03-24T21:16:08.944Z,36.92
2023-03-24T21:18:38.398Z,40.00
2023-03-24T21:21:05.132Z,41.22
2023-03-24T21:23:39.262Z,39.72
2023-03-24T21:26:07.241Z,47.88
2023-03-24T21:28:34.056Z,48.70
2023-03-24T21:31:06.927Z,50.03
2023-03-24T21:33:33.404Z,42.70
2023-03-24T21:35:59.832Z,50.30
2023-03-24T21:38:26.220Z,51.17
2023-03-24T21:40:59.021Z,39.55
2023-03-24T21:43:27.102Z,43.47
2023-03-24T21:45:54.462Z,56.22
2023-03-24T21:48:21.365Z,36.33
2023-03-24T21:50:52.131Z,38.55
2023-03-24T21:53:18.999Z,54.92
2023-03-24T21:56:04.917Z,44.08
2023-03-24T21:58:31.738Z,40.83
2023-03-24T22:00:59.185Z,50.83
2023-03-24T22:03:26.308Z,36.40
2023-03-24T22:05:57.010Z,48.75
2023-03-24T22:08:26.567Z,45.38
2023-03-24T22:11:00.581Z,36.35
2023-03-24T22:13:28.160Z,30.50
2023-03-24T22:15:57.290Z,52.22
2023-03-24T22:18:24.774Z,48.20
2023-03-24T22:21:01.080Z,34.13
2023-03-24T22:23:32.715Z,43.42
2023-03-24T22:26:01.762Z,39.50
2023-03-24T22:28:28.989Z,48.78
2023-03-24T22:31:02.658Z,37.00
2023-03-24T22:33:30.080Z,40.00
2023-03-24T22:36:00.438Z,47.72
2023-03-24T22:38:27.465Z,30.83
2023-03-24T22:41:01.350Z,37.45
2023-03-24T22:43:29.043Z,29.38
2023-03-24T22:45:58.008Z,32.40
2023-03-24T22:48:24.764Z,35.28
2023-03-24T22:50:52.172Z,34.95
2023-03-24T22:53:18.605Z,32.28
2023-03-24T22:55:45.514Z,53.78
2023-03-24T22:58:13.414Z,28.45
2023-03-24T23:00:43.306Z,39.03
2023-03-24T23:03:10.397Z,35.78
2023-03-24T23:05:41.077Z,43.47
2023-03-24T23:08:09.133Z,40.20
2023-03-24T23:10:35.957Z,48.53
2023-03-24T23:13:04.494Z,31.70
2023-03-24T23:15:38.437Z,33.25
2023-03-24T23:18:10.375Z,29.52
2023-03-24T23:20:37.791Z,38.78
2023-03-24T23:23:06.331Z,43.75
2023-03-24T23:25:34.649Z,43.72
2023-03-24T23:28:01.306Z,36.83
2023-03-24T23:30:27.822Z,32.75
2023-03-24T23:32:54.539Z,36.40
2023-03-24T23:35:21.157Z,27.02
2023-03-24T23:37:48.367Z,36.03
2023-03-24T23:40:15.776Z,41.35
2023-03-24T23:42:43.963Z,36.45
2023-03-24T23:45:18.294Z,43.53
2023-03-24T23:47:51.880Z,41.30
2023-03-24T23:50:19.722Z,37.78
2023-03-24T23:52:46.704Z,44.28
2023-03-24T23:55:14.082Z,32.53
2023-03-24T23:57:42.167Z,51.10
